createdAt,value
2022-10-01T00:04:44.420Z,9.30
2022-10-01T00:09:47.872Z,9.28
2022-10-01T00:14:51.018Z,9.27
2022-10-01T00:19:53.913Z,9.27
2022-10-01T00:24:56.729Z,9.25
2022-10-01T00:30:00.382Z,9.13
2022-10-01T00:35:04.114Z,8.92
2022-10-01T00:40:07.535Z,8.85
2022-10-01T00:45:13.079Z,8.82
2022-10-01T00:50:21.410Z,8.82
2022-10-01T00:55:28.935Z,8.72
2022-10-01T01:00:32.283Z,8.68
2022-10-01T01:05:35.525Z,8.66
2022-10-01T01:11:02.020Z,8.69
2022-10-01T01:16:39.827Z,8.81
2022-10-01T01:21:48.846Z,8.83
2022-10-01T01:27:19.772Z,8.87
2022-10-01T01:32:48.832Z,8.93
2022-10-01T01:37:58.567Z,8.91
2022-10-01T01:43:08.291Z,8.83
2022-10-01T01:48:13.069Z,8.90
2022-10-01T01:53:16.199Z,9.04
2022-10-01T01:58:19.626Z,9.12
2022-10-01T02:03:26.300Z,9.19
2022-10-01T02:08:48.015Z,9.24
2022-10-01T02:14:21.024Z,9.25
2022-10-01T02:19:57.335Z,9.23
2022-10-01T02:25:04.220Z,9.05
2022-10-01T02:30:11.008Z,8.83
2022-10-01T02:35:21.436Z,8.65
2022-10-01T02:40:27.987Z,8.60
2022-10-01T02:45:35.423Z,8.52
2022-10-01T02:50:48.108Z,8.48
2022-10-01T02:55:53.594Z,8.34
2022-10-01T03:00:57.034Z,8.14
2022-10-01T03:06:00.216Z,7.83
2022-10-01T03:11:03.294Z,7.58
2022-10-01T03:16:06.497Z,7.41
2022-10-01T03:21:09.515Z,7.33
2022-10-01T03:26:12.723Z,7.28
2022-10-01T03:31:15.353Z,7.19
2022-10-01T03:36:18.561Z,7.01
2022-10-01T03:41:21.600Z,6.85
2022-10-01T03:46:26.294Z,6.80
2022-10-01T03:51:30.352Z,6.70
2022-10-01T03:56:33.709Z,6.63
2022-10-01T04:01:36.802Z,6.57
2022-10-01T04:06:40.674Z,6.50
2022-10-01T04:11:46.901Z,6.43
2022-10-01T04:16:53.036Z,6.37
2022-10-01T04:21:56.286Z,6.27
2022-10-01T04:26:59.400Z,6.14
2022-10-01T04:32:04.018Z,5.91
2022-10-01T04:37:06.665Z,5.70
2022-10-01T04:42:10.874Z,5.55
2022-10-01T04:47:13.743Z,5.48
2022-10-01T04:52:16.963Z,5.39
2022-10-01T04:57:23.333Z,5.32
2022-10-01T05:02:26.350Z,5.26
2022-10-01T05:07:29.243Z,5.24
2022-10-01T05:12:35.592Z,5.31
2022-10-01T05:17:39.084Z,5.39
2022-10-01T05:22:41.592Z,5.46
2022-10-01T05:27:44.031Z,5.55
2022-10-01T05:32:57.591Z,5.65
2022-10-01T05:38:03.076Z,5.81
2022-10-01T05:43:05.416Z,6.05
2022-10-01T05:48:09.253Z,6.30
2022-10-01T05:53:14.109Z,6.58
2022-10-01T05:58:17.773Z,6.84
2022-10-01T06:03:22.666Z,7.08
2022-10-01T06:08:27.021Z,7.29
2022-10-01T06:13:29.478Z,7.41
2022-10-01T06:18:32.176Z,7.53
2022-10-01T06:23:36.633Z,7.67
2022-10-01T06:28:39.313Z,7.84
2022-10-01T06:33:42.063Z,7.95
2022-10-01T06:38:48.539Z,8.08
2022-10-01T06:43:51.156Z,8.24
2022-10-01T06:48:56.271Z,8.41
2022-10-01T06:53:58.654Z,8.48
2022-10-01T06:59:01.061Z,8.54
2022-10-01T07:04:03.795Z,8.65
2022-10-01T07:09:07.480Z,8.80
2022-10-01T07:14:10.575Z,9.05
2022-10-01T07:19:13.114Z,9.22
2022-10-01T07:24:16.707Z,9.33
2022-10-01T07:29:20.073Z,9.27
2022-10-01T07:34:24.849Z,9.30
2022-10-01T07:39:27.447Z,9.47
2022-10-01T07:44:31.169Z,9.58
2022-10-01T07:49:33.772Z,9.70
2022-10-01T07:54:39.380Z,9.89
2022-10-01T07:59:42.646Z,10.08
2022-10-01T08:05:08.764Z,10.13
2022-10-01T08:10:14.502Z,10.19
2022-10-01T08:15:17.700Z,10.21
2022-10-01T08:20:21.322Z,10.38
2022-10-01T08:25:28.459Z,10.38
2022-10-01T08:30:31.206Z,10.37
2022-10-01T08:35:39.202Z,10.47
2022-10-01T08:40:47.019Z,10.49
2022-10-01T08:45:54.469Z,10.41
2022-10-01T08:51:05.619Z,10.48
2022-10-01T08:56:19.135Z,10.63
2022-10-01T09:01:22.172Z,10.61
2022-10-01T09:06:28.061Z,10.70
2022-10-01T09:11:41.574Z,10.83
2022-10-01T09:16:56.039Z,11.00
2022-10-01T09:22:04.493Z,11.21
2022-10-01T09:27:15.256Z,11.32
2022-10-01T09:32:25.255Z,11.40
2022-10-01T09:37:45.413Z,11.67
2022-10-01T09:42:51.839Z,12.14
2022-10-01T09:48:04.598Z,12.75
2022-10-01T09:53:16.651Z,13.33
2022-10-01T09:58:24.365Z,13.57
2022-10-01T10:03:30.760Z,14.01
2022-10-01T10:08:40.311Z,14.26
2022-10-01T10:13:55.362Z,14.22
2022-10-01T10:19:02.504Z,14.50
2022-10-01T10:24:06.287Z,14.70
2022-10-01T10:29:30.815Z,14.78
2022-10-01T10:34:39.574Z,15.12
2022-10-01T10:39:47.020Z,15.49
2022-10-01T10:44:54.550Z,15.69
2022-10-01T10:50:07.707Z,15.94
2022-10-01T10:55:19.091Z,16.29
2022-10-01T11:00:25.811Z,16.60
2022-10-01T11:05:33.494Z,16.84
2022-10-01T11:10:43.606Z,17.17
2022-10-01T11:16:28.522Z,17.28
2022-10-01T11:21:53.615Z,17.21
2022-10-01T11:27:18.288Z,16.97
2022-10-01T11:32:45.699Z,16.96
2022-10-01T11:38:03.693Z,16.89
2022-10-01T11:43:30.281Z,16.51
2022-10-01T11:48:50.963Z,16.27
2022-10-01T11:54:03.708Z,16.29
2022-10-01T11:59:21.145Z,16.32
2022-10-01T12:04:40.241Z,16.38
2022-10-01T12:09:55.013Z,16.35
2022-10-01T12:15:23.026Z,16.25
2022-10-01T12:20:48.498Z,16.00
2022-10-01T12:26:04.028Z,15.92
2022-10-01T12:31:25.334Z,15.91
2022-10-01T12:36:37.785Z,15.89
2022-10-01T12:42:16.653Z,15.84
2022-10-01T12:47:28.176Z,15.75
2022-10-01T12:53:04.747Z,15.64
2022-10-01T12:58:30.300Z,15.50
2022-10-01T13:03:46.945Z,15.35
2022-10-01T13:09:19.715Z,15.21
2022-10-01T13:14:22.620Z,15.09
2022-10-01T13:19:46.205Z,15.06
2022-10-01T13:25:01.464Z,15.07
2022-10-01T13:30:22.600Z,15.07
2022-10-01T13:35:56.393Z,15.06
2022-10-01T13:41:03.517Z,15.05
2022-10-01T13:46:09.215Z,15.06
2022-10-01T13:51:19.936Z,15.01
2022-10-01T13:56:34.951Z,14.99
2022-10-01T14:01:42.126Z,14.83
2022-10-01T14:07:07.075Z,14.80
2022-10-01T14:12:39.748Z,14.77
2022-10-01T14:17:45.070Z,14.66
2022-10-01T14:23:09.205Z,14.62
2022-10-01T14:28:48.038Z,14.58
2022-10-01T14:34:19.334Z,14.57
2022-10-01T14:39:24.076Z,14.55
2022-10-01T14:44:36.507Z,14.54
2022-10-01T14:49:38.139Z,14.47
2022-10-01T14:54:49.286Z,14.42
2022-10-01T14:59:53.045Z,14.38
2022-10-01T15:04:58.028Z,14.36
2022-10-01T15:10:08.328Z,14.32
2022-10-01T15:15:34.422Z,14.26
2022-10-01T15:20:38.976Z,14.20
2022-10-01T15:25:44.957Z,14.20
2022-10-01T15:30:47.528Z,14.19
2022-10-01T15:35:49.484Z,14.14
2022-10-01T15:41:13.895Z,14.06
2022-10-01T15:46:24.958Z,14.05
2022-10-01T15:51:28.027Z,14.06
2022-10-01T15:56:30.084Z,13.99
2022-10-01T16:01:38.824Z,13.93
2022-10-01T16:06:47.807Z,13.84
2022-10-01T16:12:02.108Z,13.75
2022-10-01T16:17:17.037Z,13.67
2022-10-01T16:22:20.313Z,13.57
2022-10-01T16:27:28.737Z,13.44
2022-10-01T16:32:32.148Z,13.40
2022-10-01T16:37:35.667Z,13.32
2022-10-01T16:42:41.761Z,13.20
2022-10-01T16:47:46.645Z,13.13
2022-10-01T16:52:55.218Z,13.11
2022-10-01T16:57:57.559Z,13.05
2022-10-01T17:03:00.875Z,12.93
2022-10-01T17:08:12.259Z,12.84
2022-10-01T17:13:39.889Z,12.80
2022-10-01T17:24:49.649Z,12.83
2022-10-01T17:30:17.030Z,12.76
2022-10-01T17:35:41.136Z,12.74
2022-10-01T17:40:56.733Z,12.71
2022-10-01T17:46:08.885Z,12.65
2022-10-01T17:51:18.718Z,12.61
2022-10-01T17:56:26.997Z,12.59
2022-10-01T18:01:33.335Z,12.63
2022-10-01T18:06:40.900Z,12.62
2022-10-01T18:11:44.743Z,12.60
2022-10-01T18:16:50.914Z,12.54
2022-10-01T18:21:54.823Z,12.53
2022-10-01T18:26:59.413Z,12.56
2022-10-01T18:32:12.531Z,12.60
2022-10-01T18:37:37.803Z,12.52
2022-10-01T18:42:57.305Z,12.30
2022-10-01T18:48:11.010Z,12.18
2022-10-01T18:53:28.719Z,12.03
2022-10-01T18:58:46.795Z,11.92
2022-10-01T19:04:18.678Z,11.83
2022-10-01T19:09:43.942Z,11.77
2022-10-01T19:15:05.657Z,11.71
2022-10-01T19:20:14.365Z,11.61
2022-10-01T19:25:35.754Z,11.51
2022-10-01T19:30:57.031Z,11.53
2022-10-01T19:36:00.634Z,11.56
2022-10-01T19:41:23.759Z,11.54
2022-10-01T19:46:37.014Z,11.47
2022-10-01T19:51:45.398Z,11.31
2022-10-01T19:56:57.746Z,11.12
2022-10-01T20:02:16.075Z,11.02
2022-10-01T20:07:46.873Z,11.02
2022-10-01T20:12:56.225Z,11.03
2022-10-01T20:18:14.384Z,11.00
2022-10-01T20:23:42.516Z,10.90
2022-10-01T20:29:08.279Z,10.88
2022-10-01T20:34:30.225Z,10.87
2022-10-01T20:39:48.421Z,10.85
2022-10-01T20:44:54.318Z,10.78
2022-10-01T20:50:12.326Z,10.69
2022-10-01T20:55:28.767Z,10.64
2022-10-01T21:00:33.897Z,10.63
2022-10-01T21:05:52.474Z,10.63
2022-10-01T21:10:59.333Z,10.66
2022-10-01T21:16:29.593Z,10.70
2022-10-01T21:21:51.372Z,10.76
2022-10-01T21:27:04.404Z,10.76
2022-10-01T21:32:47.252Z,10.80
2022-10-01T21:38:28.876Z,10.86
2022-10-01T21:44:00.884Z,10.91
2022-10-01T21:49:33.161Z,10.88
2022-10-01T21:54:49.289Z,10.93
2022-10-01T21:59:51.423Z,11.01
2022-10-01T22:04:59.089Z,11.01
2022-10-01T22:10:07.863Z,11.00
2022-10-01T22:15:39.285Z,10.99
2022-10-01T22:20:43.428Z,10.95
2022-10-01T22:25:58.272Z,10.98
2022-10-01T22:31:02.941Z,10.95
2022-10-01T22:36:15.502Z,10.95
2022-10-01T22:41:45.538Z,10.97
2022-10-01T22:47:27.716Z,11.01
2022-10-01T22:53:16.018Z,10.98
2022-10-01T22:58:38.704Z,11.00
2022-10-01T23:04:25.382Z,11.01
2022-10-01T23:09:40.010Z,11.01
2022-10-01T23:15:00.988Z,11.03
2022-10-01T23:20:30.601Z,11.04
2022-10-01T23:25:49.728Z,11.03
2022-10-01T23:31:17.561Z,11.05
2022-10-01T23:36:45.201Z,11.10
2022-10-01T23:41:59.351Z,11.11
2022-10-01T23:47:12.384Z,11.06
2022-10-01T23:52:19.676Z,11.11
2022-10-01T23:57:35.352Z,11.14
